Grantham, United Kingdom
Current Conditions -  °F | °C
As of 1:50 PM on Friday 24 Oct 2014 (Local Time) from EGYD Reporting Station
Broken Clouds Broken Clouds  
Wind Chill: 16°   Ceiling: 7000
Heat Index: 16°   Visibility: 6mi
Dew Point: 12°   Wind: 12mph
Humidity: 77%   Direction: 220°SW
Pressure: 29.85"   Gusts: NA
Location:  52.92°N, 0.64°W
Report Text: EGYD 241250Z 22010KT 9999 FEW017 BKN070 16/12 Q1011 BLU TEMPO -RA SCT017 WHT
Loading
Personal Weather Stations






























Interactive Weather Map
Tropical Storm Tracking
New forecast layout! Learn more

10-Day Weather Forecast

Advertisements
Track Severe Weather on mobile